createdAt,value
2018-06-07T00:01:06.824Z,1.90
2018-06-07T00:03:36.259Z,1.63
2018-06-07T00:06:05.648Z,1.73
2018-06-07T00:08:35.102Z,1.63
2018-06-07T00:11:04.526Z,1.70
2018-06-07T00:13:33.926Z,1.97
2018-06-07T00:16:03.334Z,1.50
2018-06-07T00:18:32.752Z,2.10
2018-06-07T00:21:02.192Z,1.70
2018-06-07T00:23:31.596Z,1.47
2018-06-07T00:26:01.086Z,1.67
2018-06-07T00:28:30.472Z,1.60
2018-06-07T00:30:59.871Z,1.60
2018-06-07T00:33:29.273Z,1.90
2018-06-07T00:35:58.728Z,1.80
2018-06-07T00:38:28.168Z,1.33
2018-06-07T00:40:57.540Z,1.73
2018-06-07T00:43:27.009Z,1.47
2018-06-07T00:45:56.412Z,1.37
2018-06-07T00:48:25.808Z,1.57
2018-06-07T00:50:55.244Z,1.63
2018-06-07T00:53:24.709Z,1.17
2018-06-07T00:55:54.052Z,1.33
2018-06-07T00:58:23.409Z,1.63
2018-06-07T01:00:52.730Z,1.43
2018-06-07T01:03:22.155Z,1.20
2018-06-07T01:05:51.580Z,1.43
2018-06-07T01:08:21.040Z,1.70
2018-06-07T01:10:50.504Z,1.67
2018-06-07T01:13:20.007Z,1.73
2018-06-07T01:15:49.718Z,1.67
2018-06-07T01:18:19.120Z,1.20
2018-06-07T01:20:48.511Z,1.50
2018-06-07T01:23:17.972Z,1.60
2018-06-07T01:25:47.406Z,1.70
2018-06-07T01:28:16.849Z,1.50
2018-06-07T01:30:51.452Z,1.27
2018-06-07T01:33:37.727Z,1.40
2018-06-07T01:36:07.190Z,1.20
2018-06-07T01:38:53.634Z,1.37
2018-06-07T01:41:23.058Z,1.90
2018-06-07T01:43:52.432Z,1.53
2018-06-07T01:46:21.924Z,1.60
2018-06-07T01:48:51.320Z,1.43
2018-06-07T01:51:20.647Z,1.90
2018-06-07T01:53:50.013Z,1.50
2018-06-07T01:56:19.446Z,2.00
2018-06-07T01:58:48.857Z,1.50
2018-06-07T02:01:18.235Z,1.63
2018-06-07T02:03:47.689Z,1.70
2018-06-07T02:06:16.973Z,1.67
2018-06-07T02:08:46.378Z,1.23
2018-06-07T02:11:15.751Z,1.50
2018-06-07T02:13:45.152Z,1.60
2018-06-07T02:16:14.619Z,2.00
2018-06-07T02:18:44.024Z,1.43
2018-06-07T02:21:13.402Z,1.70
2018-06-07T02:23:42.560Z,1.60
2018-06-07T02:26:12.005Z,1.70
2018-06-07T02:28:41.432Z,2.07
2018-06-07T02:31:10.793Z,1.50
2018-06-07T02:33:40.199Z,1.87
2018-06-07T02:36:09.562Z,1.53
2018-06-07T02:38:38.951Z,1.77
2018-06-07T02:41:08.344Z,1.80
2018-06-07T02:43:37.783Z,1.27
2018-06-07T02:46:07.240Z,1.93
2018-06-07T02:48:36.688Z,1.47
2018-06-07T02:51:06.063Z,1.93
2018-06-07T02:53:35.474Z,1.27
2018-06-07T02:56:04.935Z,1.67
2018-06-07T02:58:34.315Z,1.27
2018-06-07T03:01:03.759Z,1.80
2018-06-07T03:03:33.172Z,1.50
2018-06-07T03:06:02.589Z,1.63
2018-06-07T03:08:32.036Z,2.10
2018-06-07T03:11:01.399Z,1.60
2018-06-07T03:13:30.919Z,1.67
2018-06-07T03:16:00.294Z,2.13
2018-06-07T03:18:29.729Z,1.73
2018-06-07T03:20:59.177Z,1.90
2018-06-07T03:23:28.566Z,2.53
2018-06-07T03:25:57.987Z,1.93
2018-06-07T03:28:27.384Z,1.90
2018-06-07T03:30:56.834Z,1.90
2018-06-07T03:33:26.241Z,2.13
2018-06-07T03:35:55.633Z,1.90
2018-06-07T03:38:25.077Z,2.03
2018-06-07T03:40:54.565Z,1.73
2018-06-07T03:43:23.991Z,1.80
2018-06-07T03:45:53.451Z,2.03
2018-06-07T03:48:22.902Z,2.13
2018-06-07T03:50:52.389Z,1.70
2018-06-07T03:53:21.892Z,1.50
2018-06-07T03:55:51.313Z,1.60
2018-06-07T03:58:20.740Z,2.07
2018-06-07T04:00:50.224Z,1.47
2018-06-07T04:03:19.660Z,2.17
2018-06-07T04:05:49.177Z,2.00
2018-06-07T04:08:18.642Z,1.80
2018-06-07T04:10:48.280Z,1.50
2018-06-07T04:13:17.739Z,1.50
2018-06-07T04:15:47.099Z,1.50
2018-06-07T04:18:16.506Z,1.63
2018-06-07T04:20:45.857Z,1.90
2018-06-07T04:23:16.108Z,1.40
2018-06-07T04:25:45.557Z,1.50
2018-06-07T04:28:15.063Z,1.40
2018-06-07T04:30:44.458Z,1.80
2018-06-07T04:33:13.890Z,1.60
2018-06-07T04:35:43.299Z,1.70
2018-06-07T04:38:12.865Z,1.43
2018-06-07T04:40:42.267Z,1.87
2018-06-07T04:43:11.627Z,1.93
2018-06-07T04:45:41.044Z,1.77
2018-06-07T04:48:10.421Z,1.60
2018-06-07T04:50:39.920Z,2.60
2018-06-07T04:53:09.303Z,2.13
2018-06-07T04:55:38.698Z,2.47
2018-06-07T04:58:08.146Z,1.70
2018-06-07T05:00:37.570Z,1.63
2018-06-07T05:03:06.717Z,1.70
2018-06-07T05:05:36.145Z,2.23
2018-06-07T05:08:05.641Z,1.63
2018-06-07T05:10:35.081Z,1.57
2018-06-07T05:13:04.543Z,1.70
2018-06-07T05:15:34.006Z,1.97
2018-06-07T05:18:03.471Z,1.60
2018-06-07T05:20:32.908Z,1.70
2018-06-07T05:23:02.314Z,1.40
2018-06-07T05:25:31.712Z,2.10
2018-06-07T05:28:01.198Z,1.90
2018-06-07T05:30:30.602Z,1.70
2018-06-07T05:33:00.009Z,1.57
2018-06-07T05:35:29.405Z,1.90
2018-06-07T05:37:58.798Z,1.63
2018-06-07T05:40:28.195Z,1.60
2018-06-07T05:42:57.592Z,1.40
2018-06-07T05:45:27.001Z,2.10
2018-06-07T05:47:56.145Z,2.30
2018-06-07T05:50:25.549Z,1.50
2018-06-07T05:52:55.029Z,2.07
2018-06-07T05:55:24.554Z,1.90
2018-06-07T05:57:53.997Z,1.40
2018-06-07T06:00:23.434Z,1.70
2018-06-07T06:02:52.930Z,1.50
2018-06-07T06:05:22.358Z,1.23
2018-06-07T06:07:51.765Z,1.33
2018-06-07T06:10:21.179Z,1.20
2018-06-07T06:12:50.572Z,1.30
2018-06-07T06:15:19.930Z,1.20
2018-06-07T06:17:49.356Z,1.13
2018-06-07T06:20:18.683Z,1.10
2018-06-07T06:22:48.194Z,0.80
2018-06-07T06:25:17.611Z,1.13
2018-06-07T06:27:47.079Z,1.20
2018-06-07T06:30:16.531Z,1.20
2018-06-07T06:32:45.961Z,1.30
2018-06-07T06:35:15.436Z,1.00
2018-06-07T06:38:48.924Z,1.27
2018-06-07T06:41:18.361Z,1.00
2018-06-07T06:43:47.752Z,1.00
2018-06-07T06:46:17.159Z,1.20
2018-06-07T06:48:46.533Z,1.27
2018-06-07T06:51:15.932Z,1.30
2018-06-07T06:53:45.335Z,1.83
2018-06-07T06:56:14.684Z,1.43
2018-06-07T06:58:44.138Z,1.70
2018-06-07T07:01:14.864Z,1.60
2018-06-07T07:03:44.654Z,1.23
2018-06-07T07:06:14.077Z,1.73
2018-06-07T07:08:43.586Z,1.73
2018-06-07T07:11:12.924Z,2.53
2018-06-07T07:13:42.364Z,2.13
2018-06-07T07:16:11.787Z,2.90
2018-06-07T07:18:41.244Z,2.40
2018-06-07T07:21:10.700Z,2.03
2018-06-07T07:23:40.176Z,2.30
2018-06-07T07:26:09.576Z,2.13
2018-06-07T07:28:38.952Z,2.37
2018-06-07T07:31:08.377Z,1.70
2018-06-07T07:33:37.836Z,1.70
2018-06-07T07:36:07.279Z,2.80
2018-06-07T07:38:36.794Z,2.10
2018-06-07T07:41:06.222Z,1.93
2018-06-07T07:43:35.658Z,2.57
2018-06-07T07:46:05.059Z,1.73
2018-06-07T07:48:34.472Z,2.10
2018-06-07T07:51:03.943Z,2.10
2018-06-07T07:53:33.418Z,2.57
2018-06-07T07:56:02.823Z,2.43
2018-06-07T07:58:32.194Z,2.70
2018-06-07T08:01:01.596Z,2.37
2018-06-07T08:03:30.998Z,2.87
2018-06-07T08:06:00.473Z,2.00
2018-06-07T08:08:29.908Z,2.50
2018-06-07T08:10:59.350Z,2.20
2018-06-07T08:13:28.803Z,2.50
2018-06-07T08:15:58.353Z,2.20
2018-06-07T08:18:27.500Z,2.80
2018-06-07T08:20:56.918Z,2.20
2018-06-07T08:23:26.330Z,2.87
2018-06-07T08:25:55.793Z,2.50
2018-06-07T08:28:25.250Z,2.20
2018-06-07T08:30:54.644Z,2.70
2018-06-07T08:33:24.056Z,2.77
2018-06-07T08:35:53.486Z,3.50
2018-06-07T08:38:22.852Z,1.93
2018-06-07T08:40:52.329Z,2.10
2018-06-07T08:43:21.707Z,1.97
2018-06-07T08:45:51.104Z,1.50
2018-06-07T08:48:20.518Z,1.57
2018-06-07T08:50:49.947Z,1.60
2018-06-07T08:53:19.324Z,1.23
2018-06-07T08:55:48.739Z,1.20
2018-06-07T08:58:18.171Z,1.33
2018-06-07T09:00:47.597Z,1.33
2018-06-07T09:03:16.994Z,1.10
2018-06-07T09:05:46.348Z,1.40
2018-06-07T09:08:15.786Z,1.60
2018-06-07T09:10:45.231Z,1.47
2018-06-07T09:13:14.611Z,1.83
2018-06-07T09:15:44.021Z,1.87
2018-06-07T09:18:13.473Z,1.27
2018-06-07T09:20:42.892Z,1.57
2018-06-07T09:23:12.273Z,1.53
2018-06-07T09:25:41.705Z,1.30
2018-06-07T09:28:11.244Z,1.63
2018-06-07T09:30:40.408Z,1.67
2018-06-07T09:33:09.825Z,2.00
2018-06-07T09:35:39.268Z,1.30
2018-06-07T09:38:08.685Z,1.83
2018-06-07T09:40:38.096Z,1.50
2018-06-07T09:43:07.524Z,1.57
2018-06-07T09:45:36.939Z,1.30
2018-06-07T09:48:06.465Z,1.57
2018-06-07T09:50:35.867Z,1.60
2018-06-07T09:53:05.237Z,1.80
2018-06-07T09:55:34.697Z,1.47
2018-06-07T09:58:04.146Z,1.83
2018-06-07T10:00:33.508Z,2.20
2018-06-07T10:03:02.974Z,1.73
2018-06-07T10:05:32.416Z,1.43
2018-06-07T10:08:01.785Z,1.30
2018-06-07T10:10:31.226Z,1.57
2018-06-07T10:13:00.740Z,1.30
2018-06-07T10:15:30.152Z,1.43
2018-06-07T10:17:59.633Z,1.70
2018-06-07T10:20:29.072Z,1.57
2018-06-07T10:22:58.463Z,2.47
2018-06-07T10:25:27.868Z,2.97
2018-06-07T10:27:57.349Z,3.30
2018-06-07T10:30:26.719Z,4.10
2018-06-07T10:32:56.194Z,3.30
2018-06-07T10:35:25.584Z,4.30
2018-06-07T10:37:55.029Z,3.47
2018-06-07T10:40:24.488Z,3.60
2018-06-07T10:42:53.893Z,3.73
2018-06-07T10:45:23.271Z,3.57
2018-06-07T10:47:52.724Z,3.90
2018-06-07T10:50:22.161Z,4.20
2018-06-07T10:52:52.158Z,3.90
2018-06-07T10:55:21.627Z,4.53
2018-06-07T10:57:51.043Z,3.70
2018-06-07T11:00:20.442Z,4.03
2018-06-07T11:02:50.540Z,4.13
2018-06-07T11:05:19.981Z,4.57
2018-06-07T11:07:49.365Z,4.30
2018-06-07T11:10:18.732Z,3.07
2018-06-07T11:12:49.275Z,4.67
2018-06-07T11:15:18.801Z,4.17
2018-06-07T11:17:48.245Z,4.23
2018-06-07T11:20:17.605Z,4.00
2018-06-07T11:22:46.991Z,4.00
2018-06-07T11:25:16.351Z,4.00
2018-06-07T11:27:45.902Z,3.87
2018-06-07T11:30:15.235Z,3.90
2018-06-07T11:32:44.618Z,4.20
2018-06-07T11:35:14.071Z,3.70
2018-06-07T11:37:43.222Z,3.90
2018-06-07T11:40:12.576Z,4.60
2018-06-07T11:42:41.948Z,4.60
2018-06-07T11:45:11.406Z,4.23
2018-06-07T11:47:40.828Z,3.80
2018-06-07T11:50:10.266Z,3.80
2018-06-07T11:52:39.692Z,3.90
2018-06-07T11:55:09.074Z,4.80
2018-06-07T11:57:38.403Z,4.10
2018-06-07T12:00:07.908Z,4.07
2018-06-07T12:02:37.273Z,4.90
2018-06-07T12:05:06.732Z,4.13
2018-06-07T12:07:36.111Z,4.27
2018-06-07T12:10:05.551Z,4.77
2018-06-07T12:12:35.074Z,4.20
2018-06-07T12:15:04.484Z,4.97
2018-06-07T12:17:33.946Z,4.43
2018-06-07T12:20:03.336Z,4.80
2018-06-07T12:22:32.769Z,4.90
2018-06-07T12:25:02.188Z,4.40
2018-06-07T12:27:31.630Z,4.67
2018-06-07T12:30:01.041Z,4.20
2018-06-07T12:32:30.665Z,4.80
2018-06-07T12:35:00.352Z,4.20
2018-06-07T12:37:30.032Z,4.47
2018-06-07T12:39:59.782Z,4.90
2018-06-07T12:42:29.493Z,5.43
2018-06-07T12:44:59.319Z,4.70
2018-06-07T12:47:28.786Z,4.63
2018-06-07T12:49:58.218Z,5.00
2018-06-07T12:52:27.750Z,4.80
2018-06-07T12:54:57.514Z,5.40
2018-06-07T12:57:26.893Z,4.93
2018-06-07T12:59:56.587Z,5.60
2018-06-07T13:02:26.075Z,5.03
2018-06-07T13:04:55.585Z,4.40
2018-06-07T13:07:26.088Z,5.00
2018-06-07T13:09:55.682Z,5.10
2018-06-07T13:12:25.133Z,4.30
2018-06-07T13:14:54.518Z,4.93
2018-06-07T13:17:23.989Z,4.73
2018-06-07T13:19:53.510Z,4.30
2018-06-07T13:22:23.343Z,4.57
2018-06-07T13:24:54.067Z,4.60
2018-06-07T13:27:23.943Z,4.73
2018-06-07T13:29:53.377Z,5.40
2018-06-07T13:32:22.787Z,4.40
2018-06-07T13:34:52.221Z,5.13
2018-06-07T13:37:21.639Z,5.00
2018-06-07T13:39:51.049Z,4.67
2018-06-07T13:42:20.552Z,3.87
2018-06-07T13:44:50.150Z,4.70
2018-06-07T13:47:19.653Z,4.83
2018-06-07T13:49:49.132Z,4.07
2018-06-07T13:52:18.498Z,4.43
2018-06-07T13:54:47.903Z,4.33
2018-06-07T13:57:17.357Z,4.57
2018-06-07T13:59:46.807Z,4.30
2018-06-07T14:02:16.184Z,4.90
2018-06-07T14:04:45.528Z,4.47
2018-06-07T14:07:14.999Z,4.50
2018-06-07T14:09:44.400Z,4.03
2018-06-07T14:12:13.863Z,4.27
2018-06-07T14:14:43.384Z,4.70
2018-06-07T14:17:12.803Z,4.63
2018-06-07T14:19:42.257Z,4.73
2018-06-07T14:22:11.766Z,4.63
2018-06-07T14:24:41.139Z,5.07
2018-06-07T14:27:10.576Z,4.17
2018-06-07T14:29:39.969Z,5.00
2018-06-07T14:32:09.412Z,4.40
2018-06-07T14:34:38.819Z,4.70
2018-06-07T14:37:08.248Z,4.40
2018-06-07T14:39:37.722Z,4.60
2018-06-07T14:42:07.155Z,5.00
2018-06-07T14:44:36.600Z,4.90
2018-06-07T14:47:06.019Z,4.80
2018-06-07T14:49:35.447Z,4.70
2018-06-07T14:52:04.881Z,5.43
2018-06-07T14:54:34.291Z,5.03
2018-06-07T14:57:04.008Z,4.93
2018-06-07T14:59:33.482Z,4.40
2018-06-07T15:02:02.914Z,4.57
2018-06-07T15:04:32.341Z,4.77
2018-06-07T15:07:01.720Z,4.43
2018-06-07T15:09:31.128Z,4.47
2018-06-07T15:12:00.594Z,5.30
2018-06-07T15:14:29.988Z,4.70
2018-06-07T15:16:59.428Z,4.50
2018-06-07T15:19:28.858Z,5.00
2018-06-07T15:21:58.335Z,4.60
2018-06-07T15:24:27.807Z,4.40
2018-06-07T15:26:57.252Z,4.93
2018-06-07T15:29:26.665Z,5.37
2018-06-07T15:31:56.173Z,4.30
2018-06-07T15:34:25.564Z,4.77
2018-06-07T15:36:54.962Z,5.27
2018-06-07T15:39:24.401Z,4.27
2018-06-07T15:41:53.865Z,4.37
2018-06-07T15:44:23.281Z,5.10
2018-06-07T15:46:52.751Z,4.87
2018-06-07T15:49:22.208Z,4.87
2018-06-07T15:51:51.592Z,4.53
2018-06-07T15:54:21.088Z,5.03
2018-06-07T15:56:50.571Z,5.10
2018-06-07T15:59:20.034Z,5.10
2018-06-07T16:01:49.395Z,4.83
2018-06-07T16:04:18.783Z,4.87
2018-06-07T16:06:48.202Z,5.30
2018-06-07T16:09:17.597Z,4.67
2018-06-07T16:11:47.073Z,4.77
2018-06-07T16:14:16.570Z,4.83
2018-06-07T16:16:46.042Z,4.57
2018-06-07T16:19:15.527Z,4.50
2018-06-07T16:21:44.980Z,5.80
2018-06-07T16:24:14.358Z,5.70
2018-06-07T16:26:43.817Z,5.90
2018-06-07T16:29:13.296Z,5.00
2018-06-07T16:31:42.728Z,5.10
2018-06-07T16:34:12.118Z,4.30
2018-06-07T16:36:41.487Z,5.93
2018-06-07T16:39:11.175Z,4.93
2018-06-07T16:41:40.614Z,6.20
2018-06-07T16:44:10.036Z,5.30
2018-06-07T16:46:39.453Z,5.03
2018-06-07T16:49:08.563Z,5.50
2018-06-07T16:51:38.066Z,5.20
2018-06-07T16:54:07.432Z,5.20
2018-06-07T16:56:36.866Z,5.00
2018-06-07T16:59:06.326Z,5.83
2018-06-07T17:01:35.745Z,5.30
2018-06-07T17:04:05.194Z,5.67
2018-06-07T17:06:34.622Z,5.67
2018-06-07T17:09:05.331Z,6.13
2018-06-07T17:11:34.860Z,4.87
2018-06-07T17:14:04.319Z,4.80
2018-06-07T17:16:33.792Z,5.30
2018-06-07T17:19:03.210Z,5.70
2018-06-07T17:21:32.733Z,6.10
2018-06-07T17:24:02.193Z,6.20
2018-06-07T17:26:31.599Z,6.10
2018-06-07T17:29:01.044Z,5.70
2018-06-07T17:31:30.502Z,5.80
2018-06-07T17:33:59.960Z,6.70
2018-06-07T17:36:29.476Z,5.63
2018-06-07T17:38:58.910Z,5.07
2018-06-07T17:41:28.405Z,5.67
2018-06-07T17:43:57.849Z,4.93
2018-06-07T17:46:27.244Z,5.10
2018-06-07T17:48:56.769Z,5.53
2018-06-07T17:51:26.226Z,6.00
2018-06-07T17:53:55.577Z,5.80
2018-06-07T17:56:25.059Z,5.43
2018-06-07T17:58:54.596Z,5.30
2018-06-07T18:01:24.067Z,5.73
2018-06-07T18:03:53.528Z,5.83
2018-06-07T18:06:22.976Z,6.90
2018-06-07T18:08:52.372Z,6.83
2018-06-07T18:11:21.770Z,6.50
2018-06-07T18:13:51.175Z,6.20
2018-06-07T18:16:20.622Z,6.07
2018-06-07T18:18:50.186Z,5.83
2018-06-07T18:21:19.583Z,6.80
2018-06-07T18:23:49.065Z,5.93
2018-06-07T18:26:18.504Z,5.77
2018-06-07T18:28:48.048Z,6.23
2018-06-07T18:31:17.565Z,5.87
2018-06-07T18:33:47.064Z,6.53
2018-06-07T18:36:16.528Z,5.50
2018-06-07T18:38:46.143Z,7.23
2018-06-07T18:41:15.555Z,8.30
2018-06-07T18:43:44.939Z,7.03
2018-06-07T18:46:14.328Z,7.03
2018-06-07T18:48:43.800Z,5.90
2018-06-07T18:51:13.167Z,5.80
2018-06-07T18:53:42.568Z,6.20
2018-06-07T18:56:12.015Z,6.60
2018-06-07T18:58:41.460Z,5.70
2018-06-07T19:01:10.906Z,7.40
2018-06-07T19:03:40.307Z,6.77
2018-06-07T19:06:09.753Z,7.10
2018-06-07T19:08:44.401Z,6.47
2018-06-07T19:11:14.052Z,6.60
2018-06-07T19:13:48.709Z,6.63
2018-06-07T19:16:18.276Z,6.30
2018-06-07T19:18:51.765Z,6.67
2018-06-07T19:21:21.200Z,5.90
2018-06-07T19:23:50.657Z,5.57
2018-06-07T19:26:25.351Z,6.33
2018-06-07T19:28:54.957Z,6.00
2018-06-07T19:31:24.328Z,6.23
2018-06-07T19:33:58.961Z,5.57
2018-06-07T19:36:28.416Z,6.20
2018-06-07T19:39:03.018Z,5.73
2018-06-07T19:41:37.686Z,6.07
2018-06-07T19:44:07.199Z,6.00
2018-06-07T19:46:36.662Z,6.10
2018-06-07T19:49:06.068Z,6.03
2018-06-07T19:51:35.452Z,6.03
2018-06-07T19:54:04.940Z,5.87
2018-06-07T19:56:34.372Z,5.60
2018-06-07T19:59:03.911Z,5.37
2018-06-07T20:01:39.580Z,6.03
2018-06-07T20:04:08.997Z,6.10
2018-06-07T20:06:38.421Z,5.40
2018-06-07T20:09:09.519Z,5.30
2018-06-07T20:11:38.950Z,5.67
2018-06-07T20:14:08.394Z,5.63
2018-06-07T20:16:37.833Z,5.20
2018-06-07T20:19:07.285Z,5.50
2018-06-07T20:21:36.711Z,5.60
2018-06-07T20:24:06.111Z,5.60
2018-06-07T20:26:35.498Z,6.33
2018-06-07T20:29:05.006Z,5.60
2018-06-07T20:31:34.415Z,5.37
2018-06-07T20:34:03.823Z,5.67
2018-06-07T20:36:33.341Z,5.80
2018-06-07T20:39:02.758Z,6.00
2018-06-07T20:41:32.208Z,5.53
2018-06-07T20:44:01.802Z,5.90
2018-06-07T20:46:31.281Z,5.37
2018-06-07T20:49:00.830Z,6.30
2018-06-07T20:51:30.227Z,4.87
2018-06-07T20:53:59.751Z,5.87
2018-06-07T20:56:29.147Z,5.13
2018-06-07T20:58:58.620Z,5.07
2018-06-07T21:01:28.092Z,5.00
2018-06-07T21:03:57.503Z,5.90
2018-06-07T21:06:27.626Z,5.00
2018-06-07T21:08:56.984Z,4.50
2018-06-07T21:11:26.444Z,4.67
2018-06-07T21:13:55.920Z,4.30
2018-06-07T21:16:25.398Z,5.80
2018-06-07T21:18:56.580Z,5.53
2018-06-07T21:21:26.042Z,5.00
2018-06-07T21:23:55.452Z,4.33
2018-06-07T21:26:24.888Z,5.00
2018-06-07T21:28:54.317Z,5.60
2018-06-07T21:31:23.787Z,5.30
2018-06-07T21:33:53.291Z,4.80
2018-06-07T21:36:22.711Z,5.17
2018-06-07T21:38:52.116Z,4.90
2018-06-07T21:41:21.498Z,4.47
2018-06-07T21:43:50.935Z,4.73
2018-06-07T21:46:20.396Z,4.83
2018-06-07T21:48:49.834Z,4.77
2018-06-07T21:51:19.255Z,4.33
2018-06-07T21:53:48.668Z,4.57
2018-06-07T21:56:18.161Z,4.70
2018-06-07T21:58:47.632Z,4.40
2018-06-07T22:01:17.088Z,4.07
2018-06-07T22:03:46.491Z,4.03
2018-06-07T22:06:15.849Z,4.30
2018-06-07T22:08:45.318Z,4.20
2018-06-07T22:11:14.801Z,3.80
2018-06-07T22:13:44.271Z,4.27
2018-06-07T22:16:13.644Z,3.67
2018-06-07T22:18:43.090Z,4.10
2018-06-07T22:21:12.515Z,4.30
2018-06-07T22:23:41.935Z,4.07
2018-06-07T22:26:11.349Z,3.93
2018-06-07T22:28:40.536Z,4.30
2018-06-07T22:31:10.023Z,4.30
2018-06-07T22:33:39.449Z,4.00
2018-06-07T22:36:08.847Z,4.27
2018-06-07T22:38:38.306Z,3.90
2018-06-07T22:41:07.712Z,4.00
2018-06-07T22:43:37.148Z,4.83
2018-06-07T22:46:06.576Z,3.70
2018-06-07T22:48:35.960Z,4.47
2018-06-07T22:51:05.422Z,3.20
2018-06-07T22:53:34.895Z,3.87
2018-06-07T22:56:04.344Z,3.90
2018-06-07T22:58:33.737Z,3.90
2018-06-07T23:01:03.647Z,4.47
2018-06-07T23:03:33.095Z,4.27
2018-06-07T23:06:02.599Z,4.23
2018-06-07T23:08:32.036Z,4.53
2018-06-07T23:11:01.439Z,4.53
2018-06-07T23:13:30.827Z,4.90
2018-06-07T23:16:01.336Z,4.37
2018-06-07T23:18:30.786Z,3.70
2018-06-07T23:21:00.274Z,4.17
2018-06-07T23:23:29.798Z,4.23
2018-06-07T23:25:59.308Z,3.50
2018-06-07T23:28:28.754Z,4.13
2018-06-07T23:30:58.190Z,3.93
2018-06-07T23:33:27.614Z,4.80
2018-06-07T23:35:57.048Z,3.33
2018-06-07T23:38:26.639Z,3.30
2018-06-07T23:40:56.019Z,4.27
2018-06-07T23:43:25.408Z,3.50
2018-06-07T23:45:54.807Z,4.37
2018-06-07T23:48:24.258Z,3.80
2018-06-07T23:50:53.700Z,4.37
2018-06-07T23:53:23.097Z,3.90
2018-06-07T23:55:52.610Z,4.07
2018-06-07T23:58:22.069Z,3.97
